createdAt,value
2022-12-23T00:01:46.405Z,86.47
2022-12-23T00:04:13.121Z,86.26
2022-12-23T00:06:39.845Z,86.34
2022-12-23T00:09:06.456Z,86.22
2022-12-23T00:11:33.081Z,86.46
2022-12-23T00:14:21.609Z,86.38
2022-12-23T00:16:50.756Z,86.39
2022-12-23T00:19:17.671Z,86.33
2022-12-23T00:21:44.316Z,86.08
2022-12-23T00:24:11.650Z,86.14
2022-12-23T00:26:38.818Z,86.09
2022-12-23T00:29:05.630Z,86.09
2022-12-23T00:31:32.363Z,86.29
2022-12-23T00:33:59.201Z,86.54
2022-12-23T00:36:30.153Z,86.79
2022-12-23T00:39:18.180Z,86.60
2022-12-23T00:42:03.856Z,86.88
2022-12-23T00:44:30.508Z,86.63
2022-12-23T00:46:57.289Z,86.91
2022-12-23T00:49:42.051Z,86.75
2022-12-23T00:52:15.552Z,86.61
2022-12-23T00:54:42.348Z,86.45
2022-12-23T00:57:09.107Z,86.05
2022-12-23T00:59:35.734Z,85.88
2022-12-23T01:02:21.030Z,85.74
2022-12-23T01:05:06.251Z,85.51
2022-12-23T01:07:32.851Z,85.52
2022-12-23T01:09:59.405Z,85.83
2022-12-23T01:12:26.009Z,85.94
2022-12-23T01:14:52.670Z,85.90
2022-12-23T01:17:19.414Z,85.74
2022-12-23T01:19:46.084Z,85.50
2022-12-23T01:22:12.707Z,85.44
2022-12-23T01:24:39.264Z,85.47
2022-12-23T01:27:05.838Z,85.86
2022-12-23T01:29:33.950Z,85.80
2022-12-23T01:32:00.617Z,85.75
2022-12-23T01:34:32.564Z,85.90
2022-12-23T01:37:02.908Z,86.30
2022-12-23T01:39:29.509Z,86.69
2022-12-23T01:42:14.739Z,86.62
2022-12-23T01:45:00.924Z,86.94
2022-12-23T01:47:49.551Z,87.19
2022-12-23T01:50:58.017Z,87.80
2022-12-23T01:53:29.930Z,87.50
2022-12-23T01:55:59.256Z,87.72
2022-12-23T01:58:25.806Z,87.80
2022-12-23T02:01:14.263Z,87.69
2022-12-23T02:03:44.344Z,87.79
2022-12-23T02:06:42.831Z,87.65
2022-12-23T02:09:20.664Z,87.76
2022-12-23T02:11:53.573Z,87.66
2022-12-23T02:15:11.687Z,87.82
2022-12-23T02:17:41.187Z,87.41
2022-12-23T02:20:34.213Z,87.63
2022-12-23T02:23:06.501Z,87.43
2022-12-23T02:25:48.340Z,87.63
2022-12-23T02:28:48.901Z,87.68
2022-12-23T02:31:29.858Z,87.53
2022-12-23T02:34:42.894Z,87.48
2022-12-23T02:37:18.711Z,87.35
2022-12-23T02:40:07.231Z,87.00
2022-12-23T02:42:59.972Z,86.50
2022-12-23T02:45:50.294Z,86.55
2022-12-23T02:48:32.079Z,86.61
2022-12-23T02:51:00.880Z,86.92
2022-12-23T02:53:39.781Z,86.92
2022-12-23T02:56:09.558Z,86.99
2022-12-23T02:58:42.922Z,86.92
2022-12-23T03:01:13.305Z,87.01
2022-12-23T03:03:41.806Z,86.84
2022-12-23T03:06:17.876Z,86.90
2022-12-23T03:08:45.722Z,86.53
2022-12-23T03:11:15.343Z,86.80
2022-12-23T03:13:41.937Z,86.75
2022-12-23T03:16:17.382Z,86.78
2022-12-23T03:19:08.084Z,87.07
2022-12-23T03:21:57.205Z,87.20
2022-12-23T03:24:37.730Z,86.86
2022-12-23T03:27:08.646Z,86.79
2022-12-23T03:29:35.200Z,86.60
2022-12-23T03:32:05.108Z,86.74
2022-12-23T03:34:37.799Z,86.78
2022-12-23T03:37:08.533Z,86.72
2022-12-23T03:39:45.656Z,86.94
2022-12-23T03:42:19.268Z,86.74
2022-12-23T03:45:19.315Z,86.76
2022-12-23T03:47:47.009Z,86.77
2022-12-23T03:50:17.487Z,86.83
2022-12-23T03:52:45.639Z,86.82
2022-12-23T03:55:20.461Z,87.27
2022-12-23T03:58:09.263Z,87.33
2022-12-23T04:00:42.565Z,87.49
2022-12-23T04:03:16.160Z,87.39
2022-12-23T04:05:50.117Z,87.48
2022-12-23T04:08:24.205Z,87.70
2022-12-23T04:10:51.364Z,87.48
2022-12-23T04:13:18.067Z,87.33
2022-12-23T04:15:45.076Z,87.43
2022-12-23T04:18:12.381Z,87.01
2022-12-23T04:20:39.117Z,86.96
2022-12-23T04:23:05.840Z,86.80
2022-12-23T04:25:32.536Z,86.80
2022-12-23T04:27:59.224Z,86.68
2022-12-23T04:30:31.517Z,86.60
2022-12-23T04:33:00.851Z,86.54
2022-12-23T04:35:27.438Z,86.54
2022-12-23T04:37:54.106Z,86.26
2022-12-23T04:40:20.699Z,86.41
2022-12-23T04:42:47.336Z,86.08
2022-12-23T04:45:14.095Z,85.91
2022-12-23T04:47:40.856Z,85.96
2022-12-23T04:50:08.503Z,85.99
2022-12-23T04:52:35.103Z,85.54
2022-12-23T04:55:01.736Z,86.27
2022-12-23T04:57:28.408Z,86.37
2022-12-23T04:59:55.076Z,86.58
2022-12-23T05:02:21.878Z,86.79
2022-12-23T05:04:48.596Z,86.78
2022-12-23T05:07:15.339Z,86.90
2022-12-23T05:09:41.987Z,87.34
2022-12-23T05:12:08.593Z,87.46
2022-12-23T05:14:35.217Z,87.35
2022-12-23T05:17:07.147Z,87.27
2022-12-23T05:19:34.241Z,87.07
2022-12-23T05:22:00.801Z,87.06
2022-12-23T05:24:27.383Z,87.18
2022-12-23T05:26:59.672Z,87.02
2022-12-23T05:29:27.304Z,86.87
2022-12-23T05:31:54.242Z,86.78
2022-12-23T05:34:21.120Z,87.13
2022-12-23T05:36:47.887Z,87.13
2022-12-23T05:39:14.728Z,86.90
2022-12-23T05:41:41.382Z,86.64
2022-12-23T05:44:10.752Z,86.51
2022-12-23T05:46:37.712Z,86.44
2022-12-23T05:49:04.475Z,86.35
2022-12-23T05:51:31.135Z,86.54
2022-12-23T05:53:58.087Z,86.24
2022-12-23T05:56:24.725Z,86.12
2022-12-23T05:58:51.372Z,86.17
2022-12-23T06:01:18.506Z,86.05
2022-12-23T06:03:45.264Z,85.94
2022-12-23T06:06:12.104Z,86.21
2022-12-23T06:08:38.907Z,86.46
2022-12-23T06:11:05.902Z,86.52
2022-12-23T06:13:32.580Z,86.20
2022-12-23T06:15:59.313Z,86.06
2022-12-23T06:18:26.005Z,85.92
2022-12-23T06:20:52.714Z,85.83
2022-12-23T06:23:19.314Z,85.50
2022-12-23T06:25:47.185Z,85.89
2022-12-23T06:28:13.841Z,85.67
2022-12-23T06:30:40.531Z,85.64
2022-12-23T06:33:07.152Z,85.60
2022-12-23T06:35:33.906Z,85.05
2022-12-23T06:38:01.087Z,84.92
2022-12-23T06:40:29.244Z,84.80
2022-12-23T06:42:56.112Z,84.79
2022-12-23T06:45:22.703Z,84.94
2022-12-23T06:47:49.406Z,84.89
2022-12-23T06:50:16.127Z,84.88
2022-12-23T06:52:42.818Z,85.03
2022-12-23T06:55:09.690Z,85.71
2022-12-23T06:57:36.741Z,86.19
2022-12-23T07:00:07.319Z,86.25
2022-12-23T07:02:34.201Z,86.04
2022-12-23T07:05:00.943Z,85.73
2022-12-23T07:07:27.628Z,85.56
2022-12-23T07:09:54.190Z,85.58
2022-12-23T07:12:20.889Z,85.58
2022-12-23T07:14:47.502Z,85.61
2022-12-23T07:17:14.280Z,85.63
2022-12-23T07:19:41.808Z,85.47
2022-12-23T07:22:10.191Z,85.29
2022-12-23T07:24:37.809Z,85.00
2022-12-23T07:27:04.831Z,85.13
2022-12-23T07:29:31.540Z,85.07
2022-12-23T07:31:59.066Z,85.01
2022-12-23T07:34:25.875Z,84.65
2022-12-23T07:36:52.763Z,84.58
2022-12-23T07:39:19.928Z,84.72
2022-12-23T07:41:46.653Z,84.59
2022-12-23T07:44:13.701Z,84.53
2022-12-23T07:46:41.583Z,84.70
2022-12-23T07:49:08.260Z,84.96
2022-12-23T07:51:34.857Z,85.20
2022-12-23T07:54:01.669Z,85.14
2022-12-23T07:56:28.320Z,85.25
2022-12-23T07:58:55.281Z,85.16
2022-12-23T08:01:22.668Z,84.77
2022-12-23T08:03:49.517Z,85.02
2022-12-23T08:06:18.448Z,84.89
2022-12-23T08:08:46.805Z,85.18
2022-12-23T08:11:15.194Z,85.03
2022-12-23T08:13:44.042Z,84.88
2022-12-23T08:16:11.510Z,85.19
2022-12-23T08:18:40.122Z,85.33
2022-12-23T08:21:14.967Z,85.22
2022-12-23T08:23:43.593Z,86.12
2022-12-23T08:26:13.021Z,85.93
2022-12-23T08:28:41.247Z,85.56
2022-12-23T08:31:10.444Z,85.25
2022-12-23T08:33:38.804Z,85.70
2022-12-23T08:36:07.717Z,85.82
2022-12-23T08:38:35.673Z,85.88
2022-12-23T08:41:02.556Z,86.00
2022-12-23T08:43:35.619Z,86.37
2022-12-23T08:46:03.440Z,87.19
2022-12-23T08:48:30.340Z,87.62
2022-12-23T08:50:57.049Z,87.43
2022-12-23T08:53:23.709Z,87.37
2022-12-23T08:55:50.303Z,87.75
2022-12-23T08:58:16.940Z,87.15
2022-12-23T09:00:43.578Z,87.00
2022-12-23T09:03:10.677Z,87.35
2022-12-23T09:05:41.560Z,87.26
2022-12-23T09:08:09.238Z,88.12
2022-12-23T09:10:47.335Z,88.15
2022-12-23T09:13:22.327Z,88.49
2022-12-23T09:15:53.721Z,88.04
2022-12-23T09:18:20.845Z,88.58
2022-12-23T09:20:48.672Z,88.51
2022-12-23T09:23:16.519Z,88.49
2022-12-23T09:25:43.150Z,88.33
2022-12-23T09:28:09.833Z,88.50
2022-12-23T09:30:39.467Z,88.77
2022-12-23T09:33:06.494Z,88.61
2022-12-23T09:35:36.466Z,88.60
2022-12-23T09:38:03.897Z,88.57
2022-12-23T09:40:33.541Z,88.53
2022-12-23T09:43:18.012Z,88.72
2022-12-23T09:46:04.775Z,88.63
2022-12-23T09:48:59.599Z,88.57
2022-12-23T09:51:28.160Z,88.96
2022-12-23T09:54:22.467Z,88.85
2022-12-23T09:57:23.739Z,88.84
2022-12-23T10:00:17.004Z,89.40
2022-12-23T10:03:14.401Z,89.42
2022-12-23T10:05:58.530Z,88.90
2022-12-23T10:08:33.655Z,89.03
2022-12-23T10:11:12.306Z,88.84
2022-12-23T10:13:44.290Z,89.09
2022-12-23T10:16:19.655Z,89.18
2022-12-23T10:18:48.427Z,89.38
2022-12-23T10:21:30.340Z,89.28
2022-12-23T10:23:56.945Z,89.52
2022-12-23T10:26:35.029Z,89.65
2022-12-23T10:29:34.486Z,89.38
2022-12-23T10:32:22.147Z,88.86
2022-12-23T10:34:51.768Z,89.41
2022-12-23T10:37:31.318Z,89.58
2022-12-23T10:40:11.883Z,89.46
2022-12-23T10:43:17.907Z,89.63
2022-12-23T10:46:07.871Z,90.18
2022-12-23T10:48:53.054Z,89.96
2022-12-23T10:51:43.901Z,90.13
2022-12-23T10:54:16.951Z,89.58
2022-12-23T10:56:46.334Z,89.01
2022-12-23T10:59:16.026Z,88.97
2022-12-23T11:01:47.756Z,89.08
2022-12-23T11:04:18.034Z,88.98
2022-12-23T11:07:10.572Z,88.87
2022-12-23T11:09:59.352Z,88.62
2022-12-23T11:12:42.227Z,88.35
2022-12-23T11:15:25.223Z,88.30
2022-12-23T11:18:19.099Z,88.22
2022-12-23T11:21:01.776Z,88.17
2022-12-23T11:23:32.308Z,88.27
2022-12-23T11:26:11.732Z,87.94
2022-12-23T11:28:40.955Z,87.85
2022-12-23T11:31:14.535Z,87.72
2022-12-23T11:33:49.288Z,87.61
2022-12-23T11:36:24.218Z,87.58
2022-12-23T11:39:02.409Z,87.65
2022-12-23T11:41:35.088Z,87.33
2022-12-23T11:44:04.518Z,87.44
2022-12-23T11:46:34.008Z,87.11
2022-12-23T11:49:05.673Z,86.96
2022-12-23T11:51:32.592Z,86.95
2022-12-23T11:54:01.648Z,87.21
2022-12-23T11:56:35.527Z,87.11
2022-12-23T11:59:29.208Z,87.41
2022-12-23T12:02:01.565Z,87.11
2022-12-23T12:04:33.007Z,87.04
2022-12-23T12:07:00.814Z,87.26
2022-12-23T12:09:30.885Z,86.84
2022-12-23T12:12:04.890Z,86.76
2022-12-23T12:14:43.437Z,86.76
2022-12-23T12:17:44.288Z,86.94
2022-12-23T12:20:24.736Z,86.81
2022-12-23T12:22:59.583Z,86.85
2022-12-23T12:25:39.550Z,87.12
2022-12-23T12:28:13.827Z,87.44
2022-12-23T12:31:12.916Z,87.13
2022-12-23T12:34:11.849Z,86.68
2022-12-23T12:36:52.835Z,86.76
2022-12-23T12:39:36.350Z,86.97
2022-12-23T12:42:31.565Z,86.72
2022-12-23T12:45:22.245Z,86.97
2022-12-23T12:48:18.249Z,86.90
2022-12-23T12:50:59.791Z,86.54
2022-12-23T12:53:28.343Z,86.51
2022-12-23T12:56:15.817Z,86.47
2022-12-23T12:58:44.698Z,86.38
2022-12-23T13:01:17.287Z,86.17
2022-12-23T13:03:47.060Z,86.29
2022-12-23T13:06:28.820Z,86.48
2022-12-23T13:09:13.908Z,86.44
2022-12-23T13:11:55.157Z,86.89
2022-12-23T13:14:21.734Z,87.40
2022-12-23T13:17:03.764Z,87.10
2022-12-23T13:19:51.450Z,87.23
2022-12-23T13:22:28.071Z,86.79
2022-12-23T13:25:12.900Z,86.81
2022-12-23T13:27:45.625Z,87.06
2022-12-23T13:31:05.019Z,87.21
2022-12-23T13:33:48.679Z,87.01
2022-12-23T13:36:45.555Z,87.10
2022-12-23T13:39:56.123Z,87.22
2022-12-23T13:42:52.790Z,86.97
2022-12-23T13:45:42.835Z,86.73
2022-12-23T13:48:18.044Z,86.75
2022-12-23T13:50:55.405Z,87.00
2022-12-23T13:54:05.095Z,87.16
2022-12-23T13:57:08.960Z,87.32
2022-12-23T13:59:58.416Z,87.50
2022-12-23T14:03:02.701Z,87.60
2022-12-23T14:05:41.103Z,87.59
2022-12-23T14:08:19.805Z,87.54
2022-12-23T14:11:00.870Z,87.45
2022-12-23T14:13:41.654Z,87.77
2022-12-23T14:16:39.854Z,87.80
2022-12-23T14:19:46.303Z,87.76
2022-12-23T14:22:41.579Z,87.78
2022-12-23T14:25:30.021Z,87.68
2022-12-23T14:28:31.724Z,88.29
2022-12-23T14:30:58.646Z,87.85
2022-12-23T14:33:31.394Z,87.96
2022-12-23T14:36:26.911Z,88.13
2022-12-23T14:39:12.050Z,88.01
2022-12-23T14:42:08.373Z,87.97
2022-12-23T14:44:37.742Z,88.28
2022-12-23T14:47:40.564Z,88.26
2022-12-23T14:50:44.806Z,88.27
2022-12-23T14:53:25.311Z,88.43
2022-12-23T14:56:10.466Z,88.42
2022-12-23T14:58:46.202Z,88.51
2022-12-23T15:01:25.513Z,88.47
2022-12-23T15:04:47.595Z,88.80
2022-12-23T15:08:14.543Z,88.52
2022-12-23T15:10:51.578Z,88.68
2022-12-23T15:13:19.735Z,88.86
2022-12-23T15:15:59.162Z,89.05
2022-12-23T15:18:28.604Z,88.99
2022-12-23T15:21:04.954Z,89.45
2022-12-23T15:23:34.043Z,89.82
2022-12-23T15:26:02.352Z,89.88
2022-12-23T15:28:41.002Z,90.06
2022-12-23T15:31:35.154Z,89.40
2022-12-23T15:34:14.857Z,89.72
2022-12-23T15:36:44.828Z,89.95
2022-12-23T15:39:20.374Z,89.92
2022-12-23T15:41:48.408Z,89.78
2022-12-23T15:44:23.042Z,90.03
2022-12-23T15:46:51.329Z,89.99
2022-12-23T15:49:20.433Z,89.93
2022-12-23T15:52:12.532Z,90.12
2022-12-23T15:54:53.201Z,90.21
2022-12-23T15:57:24.320Z,90.51
2022-12-23T15:59:51.310Z,90.38
2022-12-23T16:05:34.491Z,90.46
2022-12-23T16:08:23.191Z,90.34
2022-12-23T16:11:17.896Z,90.35
2022-12-23T16:13:59.457Z,90.17
2022-12-23T16:16:33.822Z,90.35
2022-12-23T16:19:00.570Z,90.59
2022-12-23T16:21:34.749Z,90.68
2022-12-23T16:24:06.493Z,90.60
2022-12-23T16:26:40.516Z,90.49
2022-12-23T16:29:10.271Z,90.43
2022-12-23T16:31:37.702Z,90.58
2022-12-23T16:34:07.995Z,90.55
2022-12-23T16:36:36.657Z,90.44
2022-12-23T16:39:06.996Z,90.84
2022-12-23T16:41:34.600Z,90.69
2022-12-23T16:44:01.342Z,90.60
2022-12-23T16:46:31.680Z,90.82
2022-12-23T16:49:00.952Z,90.78
2022-12-23T16:51:30.589Z,91.03
2022-12-23T16:54:00.499Z,90.96
2022-12-23T16:56:30.461Z,91.50
2022-12-23T16:58:57.131Z,91.39
2022-12-23T17:01:27.736Z,91.43
2022-12-23T17:03:55.993Z,91.53
2022-12-23T17:06:23.363Z,91.85
2022-12-23T17:09:11.999Z,92.17
2022-12-23T17:11:47.738Z,92.12
2022-12-23T17:14:30.207Z,92.52
2022-12-23T17:16:57.651Z,92.45
2022-12-23T17:19:28.972Z,92.57
2022-12-23T17:22:01.618Z,92.72
2022-12-23T17:24:44.565Z,92.47
2022-12-23T17:27:14.121Z,92.26
2022-12-23T17:29:44.844Z,92.42
2022-12-23T17:32:13.998Z,92.35
2022-12-23T17:35:01.459Z,92.26
2022-12-23T17:37:31.792Z,92.43
2022-12-23T17:40:07.316Z,92.48
2022-12-23T17:42:51.911Z,92.20
2022-12-23T17:45:43.393Z,92.13
2022-12-23T17:48:17.996Z,91.93
2022-12-23T17:50:47.863Z,92.07
2022-12-23T17:53:26.314Z,92.56
2022-12-23T17:55:52.955Z,92.60
2022-12-23T17:58:19.777Z,93.15
2022-12-23T18:00:47.078Z,92.83
2022-12-23T18:03:23.911Z,92.57
2022-12-23T18:06:01.749Z,92.53
2022-12-23T18:08:29.033Z,92.47
2022-12-23T18:11:03.082Z,92.55
2022-12-23T18:16:21.577Z,93.09
2022-12-23T18:18:48.361Z,93.10
2022-12-23T18:21:24.696Z,93.60
2022-12-23T18:23:53.417Z,93.71
2022-12-23T18:26:22.757Z,93.71
2022-12-23T18:28:51.381Z,93.54
2022-12-23T18:31:23.969Z,93.37
2022-12-23T18:33:51.798Z,93.50
2022-12-23T18:36:25.969Z,93.53
2022-12-23T18:38:57.358Z,93.41
2022-12-23T18:41:27.339Z,93.48
2022-12-23T18:43:54.458Z,93.21
2022-12-23T18:46:21.671Z,93.34
2022-12-23T18:48:48.673Z,93.59
2022-12-23T18:51:17.460Z,93.53
2022-12-23T18:53:45.773Z,93.83
2022-12-23T18:56:14.314Z,94.11
2022-12-23T18:58:41.101Z,93.91
2022-12-23T19:01:12.957Z,94.10
2022-12-23T19:03:40.289Z,93.99
2022-12-23T19:06:08.833Z,93.96
2022-12-23T19:08:37.304Z,94.40
2022-12-23T19:11:15.574Z,94.62
2022-12-23T19:13:42.290Z,94.73
2022-12-23T19:16:14.115Z,94.83
2022-12-23T19:18:41.055Z,95.38
2022-12-23T19:21:09.336Z,95.54
2022-12-23T19:23:36.275Z,95.50
2022-12-23T19:26:05.904Z,96.01
2022-12-23T19:28:33.692Z,96.44
2022-12-23T19:31:00.575Z,96.69
2022-12-23T19:33:27.304Z,96.74
2022-12-23T19:35:54.960Z,96.81
2022-12-23T19:38:21.683Z,96.58
2022-12-23T19:40:57.464Z,96.83
2022-12-23T19:43:24.128Z,96.71
2022-12-23T19:45:58.939Z,96.46
2022-12-23T19:48:26.267Z,96.37
2022-12-23T19:51:00.916Z,96.15
2022-12-23T19:53:28.539Z,96.25
2022-12-23T19:56:10.980Z,95.96
2022-12-23T19:58:40.154Z,95.68
2022-12-23T20:01:11.498Z,95.44
2022-12-23T20:03:38.470Z,95.26
2022-12-23T20:06:06.976Z,95.25
2022-12-23T20:08:34.689Z,95.46
2022-12-23T20:11:09.690Z,95.54
2022-12-23T20:13:36.822Z,95.81
2022-12-23T20:16:06.116Z,96.13
2022-12-23T20:18:33.123Z,96.27
2022-12-23T20:21:01.246Z,96.74
2022-12-23T20:23:28.734Z,97.07
2022-12-23T20:25:59.099Z,97.10
2022-12-23T20:28:26.235Z,97.03
2022-12-23T20:31:11.949Z,97.27
2022-12-23T20:33:40.196Z,97.70
2022-12-23T20:36:11.365Z,97.75
2022-12-23T20:38:39.252Z,97.75
2022-12-23T20:41:07.797Z,97.67
2022-12-23T20:43:34.850Z,97.43
2022-12-23T20:46:06.039Z,97.61
2022-12-23T20:48:34.544Z,97.85
2022-12-23T20:51:24.839Z,98.43
2022-12-23T20:53:54.005Z,98.75
2022-12-23T20:56:21.942Z,99.12
2022-12-23T20:58:54.904Z,99.18
2022-12-23T21:01:24.714Z,99.24
2022-12-23T21:03:52.069Z,99.46
2022-12-23T21:06:19.645Z,99.46
2022-12-23T21:08:46.740Z,99.72
2022-12-23T21:11:16.428Z,99.63
2022-12-23T21:13:46.195Z,99.75
2022-12-23T21:16:18.157Z,99.83
2022-12-23T21:18:50.885Z,99.93
2022-12-23T21:21:17.867Z,99.95
2022-12-23T21:23:44.989Z,100.00
2022-12-23T21:26:15.141Z,100.00
2022-12-23T21:28:43.627Z,100.00
2022-12-23T21:31:10.567Z,100.00
2022-12-23T21:33:39.814Z,100.00
2022-12-23T21:36:07.833Z,100.00
2022-12-23T21:38:37.548Z,100.00
2022-12-23T21:41:07.601Z,100.00
2022-12-23T21:43:34.488Z,100.00
2022-12-23T21:46:04.265Z,100.00
2022-12-23T21:48:32.959Z,99.88
2022-12-23T21:51:20.260Z,99.79
2022-12-23T21:53:49.448Z,99.86
2022-12-23T21:56:19.148Z,99.82
2022-12-23T21:58:46.385Z,99.67
2022-12-23T22:01:16.568Z,99.12
2022-12-23T22:03:44.685Z,99.16
2022-12-23T22:06:14.962Z,99.12
2022-12-23T22:08:42.495Z,98.86
2022-12-23T22:11:12.071Z,98.64
2022-12-23T22:13:39.700Z,98.59
2022-12-23T22:16:10.881Z,98.29
2022-12-23T22:18:38.750Z,98.14
2022-12-23T22:21:11.845Z,98.04
2022-12-23T22:23:39.063Z,97.72
2022-12-23T22:26:07.210Z,97.43
2022-12-23T22:28:35.859Z,97.30
2022-12-23T22:31:21.147Z,97.16
2022-12-23T22:33:47.987Z,96.88
2022-12-23T22:36:18.059Z,96.77
2022-12-23T22:38:44.751Z,96.83
2022-12-23T22:41:11.627Z,96.59
2022-12-23T22:43:38.431Z,96.24
2022-12-23T22:46:05.621Z,96.15
2022-12-23T22:48:32.519Z,96.46
2022-12-23T22:51:03.211Z,96.31
2022-12-23T22:53:30.193Z,96.45
2022-12-23T22:55:59.080Z,96.44
2022-12-23T22:58:27.705Z,96.47
2022-12-23T23:00:54.546Z,96.47
2022-12-23T23:03:21.331Z,96.45
2022-12-23T23:06:07.039Z,96.54
2022-12-23T23:08:34.711Z,96.70
2022-12-23T23:11:03.369Z,96.96
2022-12-23T23:13:33.104Z,96.91
2022-12-23T23:15:59.989Z,97.17
2022-12-23T23:18:27.301Z,97.00
2022-12-23T23:20:59.922Z,96.97
2022-12-23T23:23:26.638Z,97.20
2022-12-23T23:25:53.344Z,97.13
2022-12-23T23:28:20.006Z,97.11
2022-12-23T23:30:47.112Z,97.09
2022-12-23T23:33:14.006Z,97.31
2022-12-23T23:35:40.729Z,97.32
2022-12-23T23:38:07.940Z,97.33
2022-12-23T23:40:34.603Z,97.55
2022-12-23T23:43:01.400Z,97.73
2022-12-23T23:45:28.067Z,97.48
2022-12-23T23:47:55.407Z,97.47
2022-12-23T23:50:22.023Z,97.31
2022-12-23T23:52:48.647Z,97.02
2022-12-23T23:55:15.304Z,96.77
2022-12-23T23:57:41.931Z,96.53
